sensor_id;sensor_type;location;lat;lon;timestamp;pressure;altitude;pressure_sealevel;temperature;humidity
56402;BME280;42299;35.160;26.100;2022-11-14T00:01:10;102053.75;;;12.81;100.00
56402;BME280;42299;35.160;26.100;2022-11-14T00:02:52;102047.69;;;12.85;100.00
56402;BME280;42299;35.160;26.100;2022-11-14T00:04:33;102051.25;;;12.85;100.00
56402;BME280;42299;35.160;26.100;2022-11-14T00:06:14;102053.03;;;12.86;100.00
56402;BME280;42299;35.160;26.100;2022-11-14T00:07:55;102051.25;;;12.87;100.00
56402;BME280;42299;35.160;26.100;2022-11-14T00:09:36;102045.09;;;12.88;100.00
56402;BME280;42299;35.160;26.100;2022-11-14T00:11:16;102039.81;;;12.88;100.00
56402;BME280;42299;35.160;26.100;2022-11-14T00:12:57;102039.84;;;12.89;100.00
56402;BME280;42299;35.160;26.100;2022-11-14T00:14:40;102043.50;;;12.93;100.00
56402;BME280;42299;35.160;26.100;2022-11-14T00:16:20;102038.84;;;12.84;100.00
56402;BME280;42299;35.160;26.100;2022-11-14T00:18:01;102035.19;;;12.79;100.00
56402;BME280;42299;35.160;26.100;2022-11-14T00:19:42;102036.09;;;12.81;100.00
56402;BME280;42299;35.160;26.100;2022-11-14T00:21:24;102034.28;;;12.78;100.00
56402;BME280;42299;35.160;26.100;2022-11-14T00:23:04;102034.22;;;12.77;100.00
56402;BME280;42299;35.160;26.100;2022-11-14T00:24:45;102039.56;;;12.78;100.00
56402;BME280;42299;35.160;26.100;2022-11-14T00:26:27;102037.03;;;12.83;100.00
56402;BME280;42299;35.160;26.100;2022-11-14T00:28:08;102027.28;;;12.82;100.00
56402;BME280;42299;35.160;26.100;2022-11-14T00:29:50;102025.59;;;12.84;100.00
56402;BME280;42299;35.160;26.100;2022-11-14T00:31:31;102034.28;;;12.78;100.00
56402;BME280;42299;35.160;26.100;2022-11-14T00:33:12;102033.44;;;12.81;100.00
56402;BME280;42299;35.160;26.100;2022-11-14T00:34:53;102035.19;;;12.81;100.00
56402;BME280;42299;35.160;26.100;2022-11-14T00:36:35;102027.25;;;12.81;100.00
56402;BME280;42299;35.160;26.100;2022-11-14T00:38:16;102028.88;;;12.75;100.00
56402;BME280;42299;35.160;26.100;2022-11-14T00:39:57;102028.13;;;12.80;100.00
56402;BME280;42299;35.160;26.100;2022-11-14T00:41:38;102033.53;;;12.84;100.00
56402;BME280;42299;35.160;26.100;2022-11-14T00:43:19;102022.09;;;12.87;100.00
56402;BME280;42299;35.160;26.100;2022-11-14T00:45:02;102024.00;;;12.91;100.00
56402;BME280;42299;35.160;26.100;2022-11-14T00:46:43;102013.56;;;12.97;100.00
56402;BME280;42299;35.160;26.100;2022-11-14T00:48:23;102012.84;;;13.04;100.00
56402;BME280;42299;35.160;26.100;2022-11-14T00:50:05;102016.56;;;13.10;100.00
56402;BME280;42299;35.160;26.100;2022-11-14T00:51:46;102012.25;;;13.14;100.00
56402;BME280;42299;35.160;26.100;2022-11-14T00:53:27;102016.69;;;13.15;100.00
56402;BME280;42299;35.160;26.100;2022-11-14T00:55:08;102007.09;;;13.19;100.00
56402;BME280;42299;35.160;26.100;2022-11-14T00:56:49;101999.28;;;13.25;100.00
56402;BME280;42299;35.160;26.100;2022-11-14T00:58:30;101998.56;;;13.32;100.00
56402;BME280;42299;35.160;26.100;2022-11-14T01:00:14;101999.53;;;13.35;100.00
56402;BME280;42299;35.160;26.100;2022-11-14T01:01:55;102002.13;;;13.34;100.00
56402;BME280;42299;35.160;26.100;2022-11-14T01:03:36;102005.63;;;13.31;100.00
56402;BME280;42299;35.160;26.100;2022-11-14T01:05:16;101993.13;;;13.27;100.00
56402;BME280;42299;35.160;26.100;2022-11-14T01:06:56;101993.94;;;13.23;100.00
56402;BME280;42299;35.160;26.100;2022-11-14T01:08:37;101988.69;;;13.25;100.00
56402;BME280;42299;35.160;26.100;2022-11-14T01:10:19;101995.72;;;13.24;100.00
56402;BME280;42299;35.160;26.100;2022-11-14T01:12:00;101992.22;;;13.25;100.00
56402;BME280;42299;35.160;26.100;2022-11-14T01:13:41;101993.97;;;13.25;100.00
56402;BME280;42299;35.160;26.100;2022-11-14T01:15:24;101997.53;;;13.25;100.00
56402;BME280;42299;35.160;26.100;2022-11-14T01:17:05;101987.63;;;13.18;100.00
56402;BME280;42299;35.160;26.100;2022-11-14T01:18:46;101985.13;;;13.24;100.00
56402;BME280;42299;35.160;26.100;2022-11-14T01:20:27;101991.47;;;13.31;100.00
56402;BME280;42299;35.160;26.100;2022-11-14T01:22:07;101992.38;;;13.31;100.00
56402;BME280;42299;35.160;26.100;2022-11-14T01:23:48;101987.88;;;13.29;100.00
56402;BME280;42299;35.160;26.100;2022-11-14T01:25:28;101986.97;;;13.28;100.00
56402;BME280;42299;35.160;26.100;2022-11-14T01:27:09;101979.97;;;13.30;100.00
56402;BME280;42299;35.160;26.100;2022-11-14T01:28:50;101979.03;;;13.28;100.00
56402;BME280;42299;35.160;26.100;2022-11-14T01:30:32;101970.13;;;13.26;100.00
56402;BME280;42299;35.160;26.100;2022-11-14T01:32:13;101978.97;;;13.25;100.00
56402;BME280;42299;35.160;26.100;2022-11-14T01:33:54;101978.13;;;13.28;100.00
56402;BME280;42299;35.160;26.100;2022-11-14T01:35:36;101974.66;;;13.30;100.00
56402;BME280;42299;35.160;26.100;2022-11-14T01:37:16;101974.56;;;13.27;100.00
56402;BME280;42299;35.160;26.100;2022-11-14T01:38:57;101976.38;;;13.28;100.00
56402;BME280;42299;35.160;26.100;2022-11-14T01:40:40;101964.00;;;13.29;100.00
56402;BME280;42299;35.160;26.100;2022-11-14T01:42:22;101963.09;;;13.28;100.00
56402;BME280;42299;35.160;26.100;2022-11-14T01:44:09;101970.34;;;13.35;100.00
56402;BME280;42299;35.160;26.100;2022-11-14T01:45:55;101956.25;;;13.36;100.00
56402;BME280;42299;35.160;26.100;2022-11-14T01:47:34;101961.63;;;13.41;100.00
56402;BME280;42299;35.160;26.100;2022-11-14T01:49:20;101960.78;;;13.42;100.00
56402;BME280;42299;35.160;26.100;2022-11-14T01:51:07;101957.13;;;13.37;100.00
56402;BME280;42299;35.160;26.100;2022-11-14T01:52:51;101959.59;;;13.29;100.00
56402;BME280;42299;35.160;26.100;2022-11-14T01:54:34;101964.75;;;13.23;100.00
56402;BME280;42299;35.160;26.100;2022-11-14T01:56:20;101962.88;;;13.18;100.00
56402;BME280;42299;35.160;26.100;2022-11-14T01:58:02;101954.88;;;13.16;100.00
56402;BME280;42299;35.160;26.100;2022-11-14T01:59:47;101957.50;;;13.16;100.00
56402;BME280;42299;35.160;26.100;2022-11-14T02:01:33;101953.31;;;13.24;100.00
56402;BME280;42299;35.160;26.100;2022-11-14T02:03:17;101953.59;;;13.36;100.00
56402;BME280;42299;35.160;26.100;2022-11-14T02:05:03;101958.22;;;13.45;100.00
56402;BME280;42299;35.160;26.100;2022-11-14T02:06:45;101951.16;;;13.45;100.00
56402;BME280;42299;35.160;26.100;2022-11-14T02:08:28;101953.63;;;13.39;100.00
56402;BME280;42299;35.160;26.100;2022-11-14T02:10:15;101950.00;;;13.34;100.00
56402;BME280;42299;35.160;26.100;2022-11-14T02:11:57;101944.53;;;13.28;100.00
56402;BME280;42299;35.160;26.100;2022-11-14T02:13:39;101948.06;;;13.27;100.00
56402;BME280;42299;35.160;26.100;2022-11-14T02:15:20;101942.00;;;13.33;100.00
56402;BME280;42299;35.160;26.100;2022-11-14T02:17:04;101950.97;;;13.39;100.00
56402;BME280;42299;35.160;26.100;2022-11-14T02:18:45;101950.13;;;13.40;100.00
56402;BME280;42299;35.160;26.100;2022-11-14T02:20:29;101935.13;;;13.41;100.00
56402;BME280;42299;35.160;26.100;2022-11-14T02:22:13;101936.94;;;13.43;100.00
56402;BME280;42299;35.160;26.100;2022-11-14T02:23:53;101943.34;;;13.51;100.00
56402;BME280;42299;35.160;26.100;2022-11-14T02:25:35;101940.00;;;13.62;100.00
56402;BME280;42299;35.160;26.100;2022-11-14T02:27:15;101948.19;;;13.71;100.00
56402;BME280;42299;35.160;26.100;2022-11-14T02:28:56;101942.97;;;13.75;100.00
56402;BME280;42299;35.160;26.100;2022-11-14T02:30:36;101948.44;;;13.83;100.00
56402;BME280;42299;35.160;26.100;2022-11-14T02:32:17;101946.78;;;13.88;100.00
56402;BME280;42299;35.160;26.100;2022-11-14T02:33:58;101941.53;;;13.91;100.00
56402;BME280;42299;35.160;26.100;2022-11-14T02:35:41;101943.38;;;13.95;100.00
56402;BME280;42299;35.160;26.100;2022-11-14T02:37:22;101939.75;;;13.91;100.00
56402;BME280;42299;35.160;26.100;2022-11-14T02:39:03;101942.50;;;13.94;100.00
56402;BME280;42299;35.160;26.100;2022-11-14T02:40:44;101937.25;;;13.98;100.00
56402;BME280;42299;35.160;26.100;2022-11-14T02:42:25;101931.94;;;13.98;100.00
56402;BME280;42299;35.160;26.100;2022-11-14T02:44:06;101938.09;;;13.95;100.00
56402;BME280;42299;35.160;26.100;2022-11-14T02:45:46;101931.78;;;13.91;100.00
56402;BME280;42299;35.160;26.100;2022-11-14T02:47:27;101933.47;;;13.86;100.00
56402;BME280;42299;35.160;26.100;2022-11-14T02:49:11;101938.72;;;13.83;100.00
56402;BME280;42299;35.160;26.100;2022-11-14T02:50:54;101942.28;;;13.84;100.00
56402;BME280;42299;35.160;26.100;2022-11-14T02:52:35;101944.13;;;13.88;100.00
56402;BME280;42299;35.160;26.100;2022-11-14T02:54:16;101930.06;;;13.93;100.00
56402;BME280;42299;35.160;26.100;2022-11-14T02:55:56;101931.06;;;13.97;100.00
56402;BME280;42299;35.160;26.100;2022-11-14T02:57:37;101935.56;;;14.01;100.00
56402;BME280;42299;35.160;26.100;2022-11-14T02:59:17;101936.50;;;14.05;100.00
56402;BME280;42299;35.160;26.100;2022-11-14T03:00:58;101933.91;;;14.08;100.00
56402;BME280;42299;35.160;26.100;2022-11-14T03:02:38;101930.34;;;14.07;100.00
56402;BME280;42299;35.160;26.100;2022-11-14T03:04:19;101926.75;;;14.04;100.00
56402;BME280;42299;35.160;26.100;2022-11-14T03:06:02;101930.22;;;14.01;100.00
56402;BME280;42299;35.160;26.100;2022-11-14T03:07:43;101932.84;;;14.00;100.00
56402;BME280;42299;35.160;26.100;2022-11-14T03:09:24;101932.84;;;14.00;100.00
56402;BME280;42299;35.160;26.100;2022-11-14T03:11:06;101936.47;;;14.03;100.00
56402;BME280;42299;35.160;26.100;2022-11-14T03:12:51;101932.13;;;14.07;100.00
56402;BME280;42299;35.160;26.100;2022-11-14T03:14:32;101934.03;;;14.14;100.00
56402;BME280;42299;35.160;26.100;2022-11-14T03:16:13;101933.31;;;14.22;100.00
56402;BME280;42299;35.160;26.100;2022-11-14T03:17:54;101937.00;;;14.29;100.00
56402;BME280;42299;35.160;26.100;2022-11-14T03:19:35;101938.00;;;14.35;100.00
56402;BME280;42299;35.160;26.100;2022-11-14T03:21:19;101939.91;;;14.41;100.00
56402;BME280;42299;35.160;26.100;2022-11-14T03:23:01;101938.22;;;14.46;100.00
56402;BME280;42299;35.160;26.100;2022-11-14T03:24:42;101934.84;;;14.55;100.00
56402;BME280;42299;35.160;26.100;2022-11-14T03:26:23;101937.56;;;14.58;100.00
56402;BME280;42299;35.160;26.100;2022-11-14T03:28:03;101936.81;;;14.63;100.00
56402;BME280;42299;35.160;26.100;2022-11-14T03:29:44;101934.25;;;14.71;100.00
56402;BME280;42299;35.160;26.100;2022-11-14T03:31:25;101942.44;;;14.82;100.00
56402;BME280;42299;35.160;26.100;2022-11-14T03:33:06;101939.88;;;14.88;100.00
56402;BME280;42299;35.160;26.100;2022-11-14T03:34:47;101935.47;;;14.91;100.00
56402;BME280;42299;35.160;26.100;2022-11-14T03:36:29;101942.63;;;14.94;100.00
56402;BME280;42299;35.160;26.100;2022-11-14T03:38:11;101943.47;;;14.91;100.00
56402;BME280;42299;35.160;26.100;2022-11-14T03:39:51;101939.00;;;14.90;100.00
56402;BME280;42299;35.160;26.100;2022-11-14T03:41:32;101939.91;;;14.91;100.00
56402;BME280;42299;35.160;26.100;2022-11-14T03:43:13;101936.38;;;14.92;100.00
56402;BME280;42299;35.160;26.100;2022-11-14T03:44:54;101938.25;;;14.97;100.00
56402;BME280;42299;35.160;26.100;2022-11-14T03:46:35;101939.34;;;15.08;100.00
56402;BME280;42299;35.160;26.100;2022-11-14T03:48:16;101932.25;;;15.10;100.00
56402;BME280;42299;35.160;26.100;2022-11-14T03:49:57;101933.97;;;15.07;100.00
56402;BME280;42299;35.160;26.100;2022-11-14T03:51:39;101939.25;;;15.02;100.00
56402;BME280;42299;35.160;26.100;2022-11-14T03:53:20;101939.97;;;14.94;100.00
56402;BME280;42299;35.160;26.100;2022-11-14T03:55:01;101947.88;;;14.91;100.00
56402;BME280;42299;35.160;26.100;2022-11-14T03:56:42;101939.88;;;14.88;100.00
56402;BME280;42299;35.160;26.100;2022-11-14T03:58:22;101936.25;;;14.84;100.00
56402;BME280;42299;35.160;26.100;2022-11-14T04:00:04;101936.22;;;14.81;100.00
56402;BME280;42299;35.160;26.100;2022-11-14T04:01:45;101939.66;;;14.77;100.00
56402;BME280;42299;35.160;26.100;2022-11-14T04:03:27;101931.69;;;14.77;100.00
56402;BME280;42299;35.160;26.100;2022-11-14T04:05:08;101935.25;;;14.77;100.00
56402;BME280;42299;35.160;26.100;2022-11-14T04:06:51;101934.34;;;14.77;100.00
56402;BME280;42299;35.160;26.100;2022-11-14T04:08:31;101933.34;;;14.70;100.00
56402;BME280;42299;35.160;26.100;2022-11-14T04:10:12;101934.25;;;14.69;100.00
56402;BME280;42299;35.160;26.100;2022-11-14T04:11:53;101938.66;;;14.69;100.00
56402;BME280;42299;35.160;26.100;2022-11-14T04:13:34;101928.91;;;14.68;100.00
56402;BME280;42299;35.160;26.100;2022-11-14T04:15:15;101931.47;;;14.65;100.00
56402;BME280;42299;35.160;26.100;2022-11-14T04:17:00;101929.69;;;14.62;100.00
56402;BME280;42299;35.160;26.100;2022-11-14T04:18:41;101933.25;;;14.64;100.00
56402;BME280;42299;35.160;26.100;2022-11-14T04:20:21;101938.56;;;14.64;100.00
56402;BME280;42299;35.160;26.100;2022-11-14T04:22:04;101927.94;;;14.64;100.00
56402;BME280;42299;35.160;26.100;2022-11-14T04:23:44;101930.47;;;14.57;100.00
56402;BME280;42299;35.160;26.100;2022-11-14T04:25:25;101924.22;;;14.55;100.00
56402;BME280;42299;35.160;26.100;2022-11-14T04:27:06;101931.34;;;14.56;100.00
56402;BME280;42299;35.160;26.100;2022-11-14T04:28:47;101931.41;;;14.60;100.00
56402;BME280;42299;35.160;26.100;2022-11-14T04:30:28;101927.00;;;14.61;100.00
56402;BME280;42299;35.160;26.100;2022-11-14T04:32:09;101928.81;;;14.63;100.00
56402;BME280;42299;35.160;26.100;2022-11-14T04:33:50;101932.34;;;14.64;100.00
56402;BME280;42299;35.160;26.100;2022-11-14T04:35:31;101928.81;;;14.65;100.00
56402;BME280;42299;35.160;26.100;2022-11-14T04:37:13;101927.03;;;14.64;100.00
56402;BME280;42299;35.160;26.100;2022-11-14T04:38:54;101928.78;;;14.62;100.00
56402;BME280;42299;35.160;26.100;2022-11-14T04:40:35;101931.53;;;14.66;100.00
56402;BME280;42299;35.160;26.100;2022-11-14T04:42:16;101935.16;;;14.71;100.00
56402;BME280;42299;35.160;26.100;2022-11-14T04:43:57;101932.59;;;14.76;100.00
56402;BME280;42299;35.160;26.100;2022-11-14T04:45:37;101924.53;;;14.73;100.00
56402;BME280;42299;35.160;26.100;2022-11-14T04:47:19;101929.78;;;14.68;100.00
56402;BME280;42299;35.160;26.100;2022-11-14T04:49:00;101926.16;;;14.63;100.00
56402;BME280;42299;35.160;26.100;2022-11-14T04:50:41;101924.38;;;14.64;100.00
56402;BME280;42299;35.160;26.100;2022-11-14T04:52:24;101929.72;;;14.65;100.00
56402;BME280;42299;35.160;26.100;2022-11-14T04:54:05;101935.97;;;14.67;100.00
56402;BME280;42299;35.160;26.100;2022-11-14T04:55:47;101936.91;;;14.71;100.00
56402;BME280;42299;35.160;26.100;2022-11-14T04:57:27;101934.28;;;14.72;100.00
56402;BME280;42299;35.160;26.100;2022-11-14T04:59:08;101933.34;;;14.70;100.00
56402;BME280;42299;35.160;26.100;2022-11-14T05:00:49;101928.97;;;14.72;100.00
56402;BME280;42299;35.160;26.100;2022-11-14T05:02:30;101935.22;;;14.74;100.00
56402;BME280;42299;35.160;26.100;2022-11-14T05:04:11;101928.97;;;14.72;100.00
56402;BME280;42299;35.160;26.100;2022-11-14T05:05:52;101932.44;;;14.68;100.00
56402;BME280;42299;35.160;26.100;2022-11-14T05:07:35;101937.72;;;14.67;100.00
56402;BME280;42299;35.160;26.100;2022-11-14T05:09:16;101935.91;;;14.64;100.00
56402;BME280;42299;35.160;26.100;2022-11-14T05:10:57;101937.72;;;14.67;100.00
56402;BME280;42299;35.160;26.100;2022-11-14T05:12:37;101934.25;;;14.69;100.00
56402;BME280;42299;35.160;26.100;2022-11-14T05:14:19;101928.94;;;14.71;100.00
56402;BME280;42299;35.160;26.100;2022-11-14T05:16:00;101928.13;;;14.75;100.00
56402;BME280;42299;35.160;26.100;2022-11-14T05:17:41;101936.19;;;14.80;100.00
56402;BME280;42299;35.160;26.100;2022-11-14T05:19:22;101930.03;;;14.82;100.00
56402;BME280;42299;35.160;26.100;2022-11-14T05:21:04;101930.03;;;14.84;100.00
56402;BME280;42299;35.160;26.100;2022-11-14T05:22:47;101932.78;;;14.88;100.00
56402;BME280;42299;35.160;26.100;2022-11-14T05:24:28;101934.72;;;14.98;100.00
56402;BME280;42299;35.160;26.100;2022-11-14T05:26:10;101933.19;;;15.12;100.00
56402;BME280;42299;35.160;26.100;2022-11-14T05:27:52;101933.44;;;15.28;100.00
56402;BME280;42299;35.160;26.100;2022-11-14T05:29:33;101927.31;;;15.36;100.00
56402;BME280;42299;35.160;26.100;2022-11-14T05:31:14;101927.47;;;15.45;100.00
56402;BME280;42299;35.160;26.100;2022-11-14T05:32:56;101932.84;;;15.50;100.00
56402;BME280;42299;35.160;26.100;2022-11-14T05:34:37;101927.53;;;15.50;100.00
56402;BME280;42299;35.160;26.100;2022-11-14T05:36:18;101928.44;;;15.50;100.00
56402;BME280;42299;35.160;26.100;2022-11-14T05:38:01;101926.63;;;15.48;100.00
56402;BME280;42299;35.160;26.100;2022-11-14T05:39:42;101928.31;;;15.43;100.00
56402;BME280;42299;35.160;26.100;2022-11-14T05:41:23;101930.91;;;15.38;100.00
56402;BME280;42299;35.160;26.100;2022-11-14T05:43:03;101939.75;;;15.34;100.00
56402;BME280;42299;35.160;26.100;2022-11-14T05:44:45;101934.41;;;15.34;100.00
56402;BME280;42299;35.160;26.100;2022-11-14T05:46:26;101930.03;;;15.38;100.00
56402;BME280;42299;35.160;26.100;2022-11-14T05:48:06;101940.97;;;15.54;100.00
56402;BME280;42299;35.160;26.100;2022-11-14T05:49:47;101931.53;;;15.79;100.00
56402;BME280;42299;35.160;26.100;2022-11-14T05:51:28;101929.19;;;16.05;100.00
56402;BME280;42299;35.160;26.100;2022-11-14T05:53:11;101932.03;;;16.20;100.00
56402;BME280;42299;35.160;26.100;2022-11-14T05:54:52;101937.38;;;16.23;100.00
56402;BME280;42299;35.160;26.100;2022-11-14T05:56:32;101931.16;;;16.23;100.00
56402;BME280;42299;35.160;26.100;2022-11-14T05:58:13;101929.41;;;16.25;100.00
56402;BME280;42299;35.160;26.100;2022-11-14T05:59:54;101932.09;;;16.26;100.00
56402;BME280;42299;35.160;26.100;2022-11-14T06:01:35;101937.44;;;16.26;100.00
56402;BME280;42299;35.160;26.100;2022-11-14T06:03:16;101939.19;;;16.24;100.00
56402;BME280;42299;35.160;26.100;2022-11-14T06:04:57;101933.81;;;16.21;100.00
56402;BME280;42299;35.160;26.100;2022-11-14T06:06:38;101932.91;;;16.19;100.00
56402;BME280;42299;35.160;26.100;2022-11-14T06:08:20;101934.69;;;16.19;100.00
56402;BME280;42299;35.160;26.100;2022-11-14T06:10:01;101930.19;;;16.16;100.00
56402;BME280;42299;35.160;26.100;2022-11-14T06:11:42;101935.50;;;16.13;100.00
56402;BME280;42299;35.160;26.100;2022-11-14T06:13:23;101934.56;;;16.10;100.00
56402;BME280;42299;35.160;26.100;2022-11-14T06:15:05;101941.66;;;16.08;100.00
56402;BME280;42299;35.160;26.100;2022-11-14T06:16:46;101939.88;;;16.08;100.00
56402;BME280;42299;35.160;26.100;2022-11-14T06:18:27;101942.56;;;16.11;100.00
56402;BME280;42299;35.160;26.100;2022-11-14T06:20:09;101942.63;;;16.16;100.00
56402;BME280;42299;35.160;26.100;2022-11-14T06:21:51;101940.00;;;16.17;100.00
56402;BME280;42299;35.160;26.100;2022-11-14T06:23:34;101940.03;;;16.22;100.00
56402;BME280;42299;35.160;26.100;2022-11-14T06:25:15;101939.19;;;16.24;100.00
56402;BME280;42299;35.160;26.100;2022-11-14T06:26:56;101936.53;;;16.26;100.00
56402;BME280;42299;35.160;26.100;2022-11-14T06:28:37;101934.84;;;16.32;100.00
56402;BME280;42299;35.160;26.100;2022-11-14T06:30:18;101936.72;;;16.43;100.00
56402;BME280;42299;35.160;26.100;2022-11-14T06:31:59;101930.63;;;16.56;100.00
56402;BME280;42299;35.160;26.100;2022-11-14T06:33:40;101930.75;;;16.65;100.00
56402;BME280;42299;35.160;26.100;2022-11-14T06:35:21;101929.88;;;16.64;100.00
56402;BME280;42299;35.160;26.100;2022-11-14T06:37:01;101934.31;;;16.64;100.00
56402;BME280;42299;35.160;26.100;2022-11-14T06:38:45;101931.66;;;16.68;100.00
56402;BME280;42299;35.160;26.100;2022-11-14T06:40:26;101930.84;;;16.72;100.00
56402;BME280;42299;35.160;26.100;2022-11-14T06:42:07;101931.78;;;16.82;100.00
56402;BME280;42299;35.160;26.100;2022-11-14T06:43:49;101930.13;;;16.92;100.00
56402;BME280;42299;35.160;26.100;2022-11-14T06:45:32;101923.13;;;17.06;100.00
56402;BME280;42299;35.160;26.100;2022-11-14T06:47:13;101921.44;;;17.19;100.00
56402;BME280;42299;35.160;26.100;2022-11-14T06:48:54;101917.94;;;17.29;100.00
56402;BME280;42299;35.160;26.100;2022-11-14T06:50:35;101918.88;;;17.35;100.00
56402;BME280;42299;35.160;26.100;2022-11-14T06:52:16;101918.91;;;17.43;100.00
56402;BME280;42299;35.160;26.100;2022-11-14T06:53:58;101916.28;;;17.53;100.00
56402;BME280;42299;35.160;26.100;2022-11-14T06:55:39;101911.97;;;17.69;100.00
56402;BME280;42299;35.160;26.100;2022-11-14T06:57:20;101906.72;;;17.89;100.00
56402;BME280;42299;35.160;26.100;2022-11-14T06:59:01;101899.66;;;18.05;100.00
56402;BME280;42299;35.160;26.100;2022-11-14T07:00:42;101904.13;;;18.10;100.00
56402;BME280;42299;35.160;26.100;2022-11-14T07:02:23;101909.47;;;18.04;100.00
56402;BME280;42299;35.160;26.100;2022-11-14T07:04:04;101904.03;;;17.89;100.00
56402;BME280;42299;35.160;26.100;2022-11-14T07:05:45;101912.88;;;17.74;100.00
56402;BME280;42299;35.160;26.100;2022-11-14T07:07:26;101907.50;;;17.64;100.00
56402;BME280;42299;35.160;26.100;2022-11-14T07:09:10;101907.47;;;17.61;100.00
56402;BME280;42299;35.160;26.100;2022-11-14T07:10:51;101903.09;;;17.79;100.00
56402;BME280;42299;35.160;26.100;2022-11-14T07:12:32;101907.63;;;17.96;100.00
56402;BME280;42299;35.160;26.100;2022-11-14T07:14:14;101905.91;;;18.11;100.00
56402;BME280;42299;35.160;26.100;2022-11-14T07:15:55;101912.22;;;18.36;100.00
56402;BME280;42299;35.160;26.100;2022-11-14T07:17:35;101901.53;;;18.44;100.00
56402;BME280;42299;35.160;26.100;2022-11-14T07:19:16;101898.88;;;18.50;100.00
56402;BME280;42299;35.160;26.100;2022-11-14T07:20:58;101898.84;;;18.53;100.00
56402;BME280;42299;35.160;26.100;2022-11-14T07:22:39;101900.69;;;18.66;100.00
56402;BME280;42299;35.160;26.100;2022-11-14T07:24:22;101902.50;;;18.96;100.00
56402;BME280;42299;35.160;26.100;2022-11-14T07:26:03;101906.94;;;19.03;100.00
56402;BME280;42299;35.160;26.100;2022-11-14T07:27:46;101900.69;;;19.08;100.00
56402;BME280;42299;35.160;26.100;2022-11-14T07:29:27;101901.59;;;19.07;100.00
56402;BME280;42299;35.160;26.100;2022-11-14T07:31:09;101893.56;;;19.07;100.00
56402;BME280;42299;35.160;26.100;2022-11-14T07:32:54;101887.31;;;19.08;100.00
56402;BME280;42299;35.160;26.100;2022-11-14T07:34:38;101881.94;;;19.07;100.00
56402;BME280;42299;35.160;26.100;2022-11-14T07:36:19;101886.44;;;19.02;100.00
56402;BME280;42299;35.160;26.100;2022-11-14T07:38:01;101890.88;;;18.98;100.00
56402;BME280;42299;35.160;26.100;2022-11-14T07:39:43;101885.53;;;19.01;100.00
56402;BME280;42299;35.160;26.100;2022-11-14T07:41:25;101884.63;;;19.01;100.00
56402;BME280;42299;35.160;26.100;2022-11-14T07:43:05;101881.97;;;18.93;100.00
56402;BME280;42299;35.160;26.100;2022-11-14T07:44:47;101895.34;;;18.93;100.00
56402;BME280;42299;35.160;26.100;2022-11-14T07:46:28;101893.53;;;19.04;100.00
56402;BME280;42299;35.160;26.100;2022-11-14T07:48:08;101889.97;;;19.13;100.00
56402;BME280;42299;35.160;26.100;2022-11-14T07:49:49;101889.06;;;19.26;100.00
56402;BME280;42299;35.160;26.100;2022-11-14T07:51:30;101893.53;;;19.29;100.00
56402;BME280;42299;35.160;26.100;2022-11-14T07:53:11;101884.63;;;19.22;100.00
56402;BME280;42299;35.160;26.100;2022-11-14T07:54:53;101887.25;;;19.24;100.00
56402;BME280;42299;35.160;26.100;2022-11-14T07:56:34;101887.25;;;19.36;100.00
56402;BME280;42299;35.160;26.100;2022-11-14T07:58:15;101889.88;;;19.57;100.00
56402;BME280;42299;35.160;26.100;2022-11-14T07:59:57;101894.25;;;19.88;100.00
56402;BME280;42299;35.160;26.100;2022-11-14T08:01:37;101881.69;;;19.98;100.00
56402;BME280;42299;35.160;26.100;2022-11-14T08:03:18;101882.59;;;19.89;100.00
56402;BME280;42299;35.160;26.100;2022-11-14T08:04:59;101882.59;;;19.91;100.00
56402;BME280;42299;35.160;26.100;2022-11-14T08:06:41;101881.72;;;19.95;100.00
56402;BME280;42299;35.160;26.100;2022-11-14T08:08:22;101894.06;;;20.25;100.00
56402;BME280;42299;35.160;26.100;2022-11-14T08:10:06;101881.38;;;20.50;100.00
56402;BME280;42299;35.160;26.100;2022-11-14T08:11:49;101890.28;;;20.56;100.00
56402;BME280;42299;35.160;26.100;2022-11-14T08:13:31;101889.47;;;20.45;100.00
56402;BME280;42299;35.160;26.100;2022-11-14T08:15:13;101886.00;;;20.22;100.00
56402;BME280;42299;35.160;26.100;2022-11-14T08:16:54;101878.97;;;20.03;100.00
56402;BME280;42299;35.160;26.100;2022-11-14T08:18:35;101887.06;;;19.94;100.00
56402;BME280;42299;35.160;26.100;2022-11-14T08:20:17;101889.69;;;20.03;100.00
56402;BME280;42299;35.160;26.100;2022-11-14T08:21:58;101883.47;;;20.01;100.00
56402;BME280;42299;35.160;26.100;2022-11-14T08:23:39;101884.25;;;20.16;100.00
56402;BME280;42299;35.160;26.100;2022-11-14T08:25:22;101886.84;;;20.32;100.00
56402;BME280;42299;35.160;26.100;2022-11-14T08:27:03;101882.38;;;20.35;100.00
56402;BME280;42299;35.160;26.100;2022-11-14T08:28:44;101882.38;;;20.41;100.00
56402;BME280;42299;35.160;26.100;2022-11-14T08:30:25;101886.84;;;20.30;100.00
56402;BME280;42299;35.160;26.100;2022-11-14T08:32:06;101881.53;;;20.25;100.00
56402;BME280;42299;35.160;26.100;2022-11-14T08:33:47;101884.16;;;20.41;100.00
56402;BME280;42299;35.160;26.100;2022-11-14T08:35:29;101879.63;;;20.47;100.00
56402;BME280;42299;35.160;26.100;2022-11-14T08:37:10;101876.91;;;20.53;100.00